PROFILE

 METAR AND TAF INFORMATION
ADDS - METARS form results

(2253 UTC 24 May 2018)

 
SPCL 242200Z 13007KT 9999 FEW025 29/20 Q1015 RMK BIRD HAZARD RWY 02/20 PP000

 AIRPORT MAP

 RUNWAY INFORMATION
Runway 02 Runway length 9186 ft Runway width 148 ft
Runway elevation 513 ft Runway displaced threshold 0 ft Runway heading 20
Runway 20 Runway length 9186 ft Runway width 148 ft
Runway elevation 513 ft Runway displaced threshold 0 ft Runway heading 200

 AIRPORT FREQUENCIES
Type APP Name PUCALLPA A Frequency 118.1 MHZ
Type TWR Name PUCALLPA T Frequency 126.9 MHZ

 AIRPORT NEAR NAVIGATION AIDS
Type VOR-DME Name Pucallpa Frequency 116700 KHZ